createdAt,value
2023-01-08T00:01:06.234Z,12.00
2023-01-08T00:03:34.266Z,12.10
2023-01-08T00:06:03.355Z,12.00
2023-01-08T00:08:32.353Z,12.10
2023-01-08T00:11:00.569Z,12.10
2023-01-08T00:13:28.730Z,12.10
2023-01-08T00:15:57.930Z,12.00
2023-01-08T00:18:27.190Z,12.00
2023-01-08T00:20:55.052Z,11.80
2023-01-08T00:23:23.058Z,11.90
2023-01-08T00:25:51.054Z,12.00
2023-01-08T00:28:20.934Z,12.10
2023-01-08T00:30:49.244Z,12.10
2023-01-08T00:33:18.487Z,12.00
2023-01-08T00:35:46.298Z,12.00
2023-01-08T00:38:14.417Z,12.10
2023-01-08T00:40:42.303Z,12.00
2023-01-08T00:43:10.249Z,12.10
2023-01-08T00:45:38.249Z,12.10
2023-01-08T00:48:06.752Z,12.00
2023-01-08T00:50:35.975Z,12.10
2023-01-08T00:53:04.436Z,12.10
2023-01-08T00:55:32.416Z,12.20
2023-01-08T00:58:00.431Z,12.10
2023-01-08T01:00:28.637Z,12.20
2023-01-08T01:02:56.447Z,12.10
2023-01-08T01:05:24.307Z,12.10
2023-01-08T01:07:53.638Z,12.10
2023-01-08T01:10:21.525Z,12.00
2023-01-08T01:12:49.509Z,12.10
2023-01-08T01:15:19.079Z,12.00
2023-01-08T01:17:47.680Z,12.00
2023-01-08T01:20:17.416Z,12.10
2023-01-08T01:22:45.426Z,12.20
2023-01-08T01:25:14.587Z,12.20
2023-01-08T01:27:42.667Z,12.10
2023-01-08T01:30:11.731Z,12.20
2023-01-08T01:32:39.597Z,12.20
2023-01-08T01:35:08.359Z,12.20
2023-01-08T01:37:36.306Z,12.20
2023-01-08T01:40:04.456Z,12.00
2023-01-08T01:42:43.892Z,12.10
2023-01-08T01:45:23.309Z,12.10
2023-01-08T01:47:55.965Z,12.10
2023-01-08T01:50:28.784Z,12.00
2023-01-08T01:53:02.334Z,12.10
2023-01-08T01:55:31.711Z,12.10
2023-01-08T01:58:07.027Z,11.90
2023-01-08T02:00:35.861Z,12.00
2023-01-08T02:03:05.963Z,12.00
2023-01-08T02:05:44.453Z,12.00
2023-01-08T02:08:14.260Z,12.00
2023-01-08T02:10:52.816Z,11.90
2023-01-08T02:13:28.306Z,11.90
2023-01-08T02:15:59.232Z,11.80
2023-01-08T02:18:32.219Z,11.90
2023-01-08T02:21:05.939Z,11.90
2023-01-08T02:23:44.006Z,11.40
2023-01-08T02:26:25.440Z,11.90
2023-01-08T02:28:59.195Z,11.90
2023-01-08T02:31:29.570Z,11.80
2023-01-08T02:33:57.737Z,11.70
2023-01-08T02:36:33.233Z,11.60
2023-01-08T02:39:15.889Z,11.90
2023-01-08T02:41:54.425Z,11.80
2023-01-08T02:44:26.896Z,11.50
2023-01-08T02:46:56.858Z,11.60
2023-01-08T02:49:29.311Z,11.40
2023-01-08T02:51:58.943Z,11.40
2023-01-08T02:54:30.972Z,11.10
2023-01-08T02:57:04.047Z,11.30
2023-01-08T02:59:33.482Z,11.40
2023-01-08T03:02:03.334Z,11.50
2023-01-08T03:04:35.526Z,11.40
2023-01-08T03:07:03.835Z,11.30
2023-01-08T03:09:31.893Z,11.40
2023-01-08T03:12:07.005Z,11.50
2023-01-08T03:14:41.344Z,11.30
2023-01-08T03:17:15.563Z,11.30
2023-01-08T03:19:49.519Z,11.30
2023-01-08T03:22:19.321Z,11.20
2023-01-08T03:24:50.492Z,11.30
2023-01-08T03:27:24.507Z,11.30
2023-01-08T03:29:55.089Z,11.20
2023-01-08T03:32:24.965Z,11.20
2023-01-08T03:34:56.587Z,11.30
2023-01-08T03:37:44.323Z,11.30
2023-01-08T03:40:17.578Z,11.40
2023-01-08T03:42:46.755Z,11.20
2023-01-08T03:45:15.027Z,11.30
2023-01-08T03:47:43.787Z,11.30
2023-01-08T03:50:17.391Z,11.20
2023-01-08T03:52:45.270Z,11.20
2023-01-08T03:55:13.064Z,11.20
2023-01-08T03:57:40.895Z,11.20
2023-01-08T04:00:11.703Z,11.20
2023-01-08T04:02:42.031Z,11.90
2023-01-08T04:05:10.865Z,11.10
2023-01-08T04:07:38.718Z,11.10
2023-01-08T04:10:07.512Z,11.00
2023-01-08T04:12:35.349Z,11.10
2023-01-08T04:15:03.179Z,11.10
2023-01-08T04:17:32.334Z,11.20
2023-01-08T04:20:00.156Z,11.10
2023-01-08T04:22:27.967Z,11.10
2023-01-08T04:24:55.738Z,11.00
2023-01-08T04:27:23.632Z,10.80
2023-01-08T04:29:51.513Z,11.00
2023-01-08T04:32:20.696Z,11.00
2023-01-08T04:34:49.883Z,10.90
2023-01-08T04:37:17.793Z,11.10
2023-01-08T04:39:45.815Z,11.10
2023-01-08T04:42:13.670Z,11.10
2023-01-08T04:44:41.466Z,11.10
2023-01-08T04:47:09.328Z,11.10
2023-01-08T04:49:37.145Z,11.20
2023-01-08T04:52:06.428Z,11.10
2023-01-08T04:54:34.253Z,11.10
2023-01-08T04:57:02.029Z,11.10
2023-01-08T04:59:29.848Z,11.00
2023-01-08T05:01:58.220Z,11.00
2023-01-08T05:04:26.219Z,10.90
2023-01-08T05:06:53.989Z,10.90
2023-01-08T05:09:23.107Z,10.90
2023-01-08T05:11:50.887Z,11.10
2023-01-08T05:14:18.783Z,11.00
2023-01-08T05:16:47.486Z,10.90
2023-01-08T05:19:15.445Z,11.00
2023-01-08T05:21:43.256Z,10.90
2023-01-08T05:24:11.156Z,10.90
2023-01-08T05:26:40.370Z,11.00
2023-01-08T05:29:08.207Z,10.80
2023-01-08T05:31:36.818Z,10.80
2023-01-08T05:34:04.581Z,10.80
2023-01-08T05:36:32.374Z,10.70
2023-01-08T05:39:00.220Z,10.70
2023-01-08T05:41:28.103Z,10.70
2023-01-08T05:43:57.248Z,10.80
2023-01-08T05:46:25.163Z,11.00
2023-01-08T05:48:53.003Z,10.80
2023-01-08T05:51:20.835Z,10.80
2023-01-08T05:53:48.611Z,10.70
2023-01-08T05:56:16.489Z,10.80
2023-01-08T05:58:44.414Z,10.80
2023-01-08T06:01:16.273Z,10.80
2023-01-08T06:03:44.348Z,10.80
2023-01-08T06:06:13.396Z,10.90
2023-01-08T06:08:41.277Z,11.00
2023-01-08T06:11:12.108Z,10.80
2023-01-08T06:13:43.108Z,10.70
2023-01-08T06:16:11.498Z,10.60
2023-01-08T06:18:40.769Z,10.70
2023-01-08T06:21:08.609Z,10.60
2023-01-08T06:23:36.463Z,10.60
2023-01-08T06:26:04.869Z,10.70
2023-01-08T06:28:33.606Z,10.60
2023-01-08T06:31:02.852Z,10.80
2023-01-08T06:33:32.724Z,10.70
2023-01-08T06:36:04.348Z,10.60
2023-01-08T06:38:33.253Z,10.50
2023-01-08T06:41:04.955Z,10.60
2023-01-08T06:43:33.577Z,10.60
2023-01-08T06:46:04.531Z,10.30
2023-01-08T06:48:32.575Z,10.50
2023-01-08T06:51:03.399Z,10.60
2023-01-08T06:53:31.491Z,10.80
2023-01-08T06:55:59.500Z,10.70
2023-01-08T06:58:28.528Z,10.30
2023-01-08T07:00:58.825Z,10.40
2023-01-08T07:03:26.940Z,10.50
2023-01-08T07:05:54.786Z,10.50
2023-01-08T07:08:24.337Z,10.40
2023-01-08T07:10:52.155Z,10.40
2023-01-08T07:13:20.954Z,10.30
2023-01-08T07:15:48.878Z,10.40
2023-01-08T07:18:16.775Z,10.50
2023-01-08T07:20:44.563Z,10.30
2023-01-08T07:23:12.972Z,10.20
2023-01-08T07:25:42.220Z,10.20
2023-01-08T07:28:12.940Z,10.30
2023-01-08T07:30:40.812Z,10.30
2023-01-08T07:33:08.618Z,10.30
2023-01-08T07:35:38.335Z,10.20
2023-01-08T07:38:06.767Z,10.20
2023-01-08T07:40:34.624Z,10.20
2023-01-08T07:43:05.330Z,10.30
2023-01-08T07:45:33.245Z,10.30
2023-01-08T07:48:01.492Z,10.10
2023-01-08T07:50:29.519Z,10.10
2023-01-08T07:52:59.301Z,10.20
2023-01-08T07:55:27.679Z,10.20
2023-01-08T07:57:55.552Z,10.10
2023-01-08T08:00:24.776Z,10.10
2023-01-08T08:02:52.689Z,10.20
2023-01-08T08:05:20.629Z,10.20
2023-01-08T08:07:48.447Z,10.10
2023-01-08T08:10:16.365Z,10.00
2023-01-08T08:12:45.906Z,10.00
2023-01-08T08:15:13.697Z,10.00
2023-01-08T08:17:46.174Z,10.10
2023-01-08T08:20:14.065Z,10.10
2023-01-08T08:22:41.939Z,9.90
2023-01-08T08:25:10.218Z,9.90
2023-01-08T08:27:38.197Z,10.00
2023-01-08T08:30:07.182Z,10.10
2023-01-08T08:32:35.098Z,10.00
2023-01-08T08:35:05.365Z,10.10
2023-01-08T08:37:33.147Z,10.10
2023-01-08T08:40:00.936Z,10.10
2023-01-08T08:42:28.799Z,10.20
2023-01-08T08:44:56.626Z,10.00
2023-01-08T08:47:24.477Z,10.00
2023-01-08T08:49:52.275Z,10.20
2023-01-08T08:52:21.441Z,10.00
2023-01-08T08:54:49.208Z,10.00
2023-01-08T08:57:17.175Z,10.10
2023-01-08T08:59:45.018Z,10.10
2023-01-08T09:02:13.538Z,10.20
2023-01-08T09:04:41.417Z,10.10
2023-01-08T09:07:09.291Z,10.10
2023-01-08T09:09:38.495Z,10.20
2023-01-08T09:12:07.432Z,10.50
2023-01-08T09:14:35.259Z,10.20
2023-01-08T09:17:03.053Z,10.30
2023-01-08T09:19:30.888Z,10.30
2023-01-08T09:21:58.789Z,10.50
2023-01-08T09:24:26.652Z,10.40
2023-01-08T09:26:56.003Z,10.40
2023-01-08T09:29:23.986Z,10.70
2023-01-08T09:31:52.041Z,10.40
2023-01-08T09:34:19.897Z,10.50
2023-01-08T09:36:47.730Z,10.40
2023-01-08T09:39:15.639Z,10.60
2023-01-08T09:41:46.951Z,10.50
2023-01-08T09:44:19.291Z,10.70
2023-01-08T09:46:48.513Z,10.60
2023-01-08T09:49:20.397Z,10.60
2023-01-08T09:51:48.394Z,10.60
2023-01-08T09:54:17.975Z,10.60
2023-01-08T09:56:46.183Z,10.70
2023-01-08T09:59:18.296Z,10.70
2023-01-08T10:01:46.958Z,10.70
2023-01-08T10:04:17.379Z,10.70
2023-01-08T10:06:51.344Z,10.70
2023-01-08T10:09:24.976Z,10.80
2023-01-08T10:11:54.265Z,10.80
2023-01-08T10:14:25.811Z,11.00
2023-01-08T10:16:57.124Z,11.00
2023-01-08T10:19:25.324Z,11.10
2023-01-08T10:21:54.224Z,11.10
2023-01-08T10:24:32.867Z,11.20
2023-01-08T10:27:08.101Z,11.30
2023-01-08T10:29:39.676Z,11.20
2023-01-08T10:32:12.115Z,11.40
2023-01-08T10:34:46.835Z,11.40
2023-01-08T10:37:25.146Z,11.30
2023-01-08T10:39:55.076Z,11.30
2023-01-08T10:42:24.581Z,11.40
2023-01-08T10:44:58.968Z,11.30
2023-01-08T10:47:29.520Z,11.50
2023-01-08T10:49:58.527Z,11.30
2023-01-08T10:52:31.622Z,11.40
2023-01-08T10:55:11.651Z,11.40
2023-01-08T10:57:42.878Z,11.50
2023-01-08T11:00:26.433Z,11.60
2023-01-08T11:02:54.449Z,11.60
2023-01-08T11:05:31.143Z,11.70
2023-01-08T11:08:00.918Z,11.60
2023-01-08T11:10:30.675Z,11.80
2023-01-08T11:13:00.955Z,11.80
2023-01-08T11:15:32.876Z,11.80
2023-01-08T11:18:11.890Z,11.90
2023-01-08T11:20:41.994Z,11.90
2023-01-08T11:23:19.790Z,12.00
2023-01-08T11:25:55.663Z,11.80
2023-01-08T11:28:30.538Z,11.90
2023-01-08T11:31:12.765Z,12.00
2023-01-08T11:33:41.435Z,12.10
2023-01-08T11:36:16.965Z,12.20
2023-01-08T11:38:44.809Z,12.10
2023-01-08T11:41:25.455Z,12.10
2023-01-08T11:44:08.498Z,12.10
2023-01-08T11:46:46.100Z,12.20
2023-01-08T11:49:28.677Z,12.20
2023-01-08T11:52:09.101Z,12.20
2023-01-08T11:54:55.977Z,12.20
2023-01-08T11:57:34.473Z,12.10
2023-01-08T12:00:20.034Z,12.20
2023-01-08T12:02:54.086Z,12.20
2023-01-08T12:05:31.029Z,12.10
2023-01-08T12:08:05.057Z,12.10
2023-01-08T12:10:44.931Z,12.20
2023-01-08T12:13:25.996Z,12.20
2023-01-08T12:16:06.383Z,12.30
2023-01-08T12:19:04.782Z,12.20
2023-01-08T12:21:34.467Z,12.10
2023-01-08T12:24:16.354Z,12.00
2023-01-08T12:26:53.272Z,11.80
2023-01-08T12:29:42.191Z,11.90
2023-01-08T12:32:24.572Z,11.80
2023-01-08T12:34:59.682Z,11.80
2023-01-08T12:37:32.226Z,11.80
2023-01-08T12:40:07.028Z,11.70
2023-01-08T12:42:42.669Z,11.80
2023-01-08T12:45:21.228Z,12.00
2023-01-08T12:47:53.284Z,11.90
2023-01-08T12:50:33.714Z,11.90
2023-01-08T12:53:05.209Z,11.90
2023-01-08T12:55:43.608Z,11.90
2023-01-08T12:58:22.360Z,11.80
2023-01-08T13:00:57.508Z,11.90
2023-01-08T13:03:28.633Z,12.10
2023-01-08T13:06:10.547Z,12.00
2023-01-08T13:08:40.188Z,12.00
2023-01-08T13:11:09.063Z,12.10
2023-01-08T13:13:39.683Z,12.10
2023-01-08T13:16:10.181Z,12.40
2023-01-08T13:18:39.293Z,12.60
2023-01-08T13:21:12.069Z,12.90
2023-01-08T13:23:39.852Z,13.30
2023-01-08T13:26:08.522Z,13.30
2023-01-08T13:28:45.160Z,13.50
2023-01-08T13:31:28.336Z,13.60
2023-01-08T13:33:56.779Z,13.90
2023-01-08T13:36:27.958Z,13.80
2023-01-08T13:39:04.507Z,13.80
2023-01-08T13:41:33.799Z,13.70
2023-01-08T13:44:05.268Z,13.50
2023-01-08T13:46:35.605Z,13.40
2023-01-08T13:49:06.254Z,13.20
2023-01-08T13:51:46.156Z,13.30
2023-01-08T13:54:36.516Z,13.00
2023-01-08T13:57:07.911Z,12.80
2023-01-08T13:59:39.681Z,12.80
2023-01-08T14:02:24.764Z,12.80
2023-01-08T14:04:53.496Z,12.90
2023-01-08T14:07:23.823Z,12.70
2023-01-08T14:09:51.970Z,12.70
2023-01-08T14:12:22.165Z,12.70
2023-01-08T14:14:52.593Z,12.80
2023-01-08T14:17:22.666Z,12.40
2023-01-08T14:19:50.708Z,12.50
2023-01-08T14:22:24.578Z,12.30
2023-01-08T14:24:56.534Z,12.20
2023-01-08T14:27:27.406Z,12.30
2023-01-08T14:29:55.579Z,12.30
2023-01-08T14:32:25.757Z,12.40
2023-01-08T14:34:55.833Z,12.40
2023-01-08T14:37:25.345Z,12.40
2023-01-08T14:39:54.922Z,12.40
2023-01-08T14:42:44.016Z,12.20
2023-01-08T14:45:18.059Z,11.90
2023-01-08T14:47:49.196Z,11.90
2023-01-08T14:50:24.505Z,12.00
2023-01-08T14:52:56.107Z,12.00
2023-01-08T14:55:24.519Z,12.10
2023-01-08T14:57:54.216Z,12.20
2023-01-08T15:00:26.165Z,12.20
2023-01-08T15:02:54.067Z,12.10
2023-01-08T15:05:26.939Z,12.00
2023-01-08T15:08:00.437Z,11.90
2023-01-08T15:10:35.898Z,12.00
2023-01-08T15:13:07.408Z,12.20
2023-01-08T15:15:38.958Z,12.00
2023-01-08T15:18:09.058Z,11.90
2023-01-08T15:20:37.680Z,12.00
2023-01-08T15:23:06.941Z,11.90
2023-01-08T15:25:34.773Z,11.80
2023-01-08T15:28:04.663Z,11.70
2023-01-08T15:30:37.407Z,11.70
2023-01-08T15:33:10.457Z,11.70
2023-01-08T15:35:38.279Z,11.50
2023-01-08T15:38:08.860Z,11.60
2023-01-08T15:40:36.656Z,11.50
2023-01-08T15:43:12.226Z,11.50
2023-01-08T15:45:41.707Z,11.60
2023-01-08T15:48:10.366Z,11.40
2023-01-08T15:50:39.977Z,11.40
2023-01-08T15:53:16.577Z,11.50
2023-01-08T15:55:46.514Z,11.30
2023-01-08T15:58:15.402Z,11.40
2023-01-08T16:00:45.173Z,11.30
2023-01-08T16:03:13.933Z,11.20
2023-01-08T16:05:41.808Z,11.20
2023-01-08T16:08:11.772Z,11.40
2023-01-08T16:10:39.548Z,11.20
2023-01-08T16:13:07.980Z,11.40
2023-01-08T16:15:36.543Z,11.50
2023-01-08T16:18:04.494Z,11.20
2023-01-08T16:20:32.505Z,11.30
2023-01-08T16:23:00.363Z,11.20
2023-01-08T16:25:31.422Z,11.40
2023-01-08T16:27:59.233Z,11.40
2023-01-08T16:30:27.868Z,11.40
2023-01-08T16:32:56.019Z,11.30
2023-01-08T16:35:24.444Z,11.50
2023-01-08T16:37:52.237Z,11.40
2023-01-08T16:40:20.148Z,11.40
2023-01-08T16:42:49.340Z,11.50
2023-01-08T16:45:17.210Z,11.70
2023-01-08T16:47:45.013Z,11.60
2023-01-08T16:50:12.956Z,11.50
2023-01-08T16:52:40.852Z,11.60
2023-01-08T16:55:10.854Z,11.50
2023-01-08T16:57:38.774Z,11.60
2023-01-08T17:00:09.397Z,11.50
2023-01-08T17:02:38.983Z,11.60
2023-01-08T17:05:07.646Z,11.80
2023-01-08T17:07:36.048Z,11.70
2023-01-08T17:10:04.140Z,11.60
2023-01-08T17:12:32.017Z,11.70
2023-01-08T17:14:59.835Z,11.60
2023-01-08T17:17:28.949Z,11.60
2023-01-08T17:19:56.739Z,11.70
2023-01-08T17:22:24.544Z,11.60
2023-01-08T17:24:52.425Z,11.60
2023-01-08T17:27:20.270Z,11.60
2023-01-08T17:29:48.087Z,11.50
2023-01-08T17:32:15.972Z,11.60
2023-01-08T17:34:45.169Z,11.30
2023-01-08T17:37:12.990Z,11.50
2023-01-08T17:39:40.855Z,11.50
2023-01-08T17:42:28.273Z,11.60
2023-01-08T17:44:58.829Z,11.60
2023-01-08T17:47:26.978Z,11.60
2023-01-08T17:49:57.371Z,11.60
2023-01-08T17:52:26.379Z,11.50
2023-01-08T17:54:54.483Z,11.60
2023-01-08T17:57:22.651Z,11.70
2023-01-08T17:59:50.698Z,11.70
2023-01-08T18:02:19.130Z,11.50
2023-01-08T18:04:46.972Z,11.50
2023-01-08T18:07:16.319Z,11.50
2023-01-08T18:09:44.768Z,11.50
2023-01-08T18:12:12.693Z,11.60
2023-01-08T18:14:41.444Z,11.60
2023-01-08T18:17:09.253Z,11.60
2023-01-08T18:19:37.131Z,11.60
2023-01-08T18:22:05.018Z,11.60
2023-01-08T18:24:34.626Z,11.70
2023-01-08T18:27:02.731Z,11.50
2023-01-08T18:29:30.795Z,11.50
2023-01-08T18:31:58.665Z,11.50
2023-01-08T18:34:26.622Z,11.50
2023-01-08T18:36:54.516Z,11.50
2023-01-08T18:39:22.426Z,11.50
2023-01-08T18:42:09.278Z,11.40
2023-01-08T18:44:37.079Z,11.40
2023-01-08T18:47:05.012Z,11.30
2023-01-08T18:49:32.859Z,11.50
2023-01-08T18:52:00.701Z,11.40
2023-01-08T18:54:28.779Z,11.40
2023-01-08T18:56:57.917Z,11.60
2023-01-08T18:59:25.769Z,11.60
2023-01-08T19:01:53.583Z,11.70
2023-01-08T19:04:21.504Z,11.60
2023-01-08T19:06:49.293Z,11.60
2023-01-08T19:09:17.492Z,11.70
2023-01-08T19:11:45.314Z,11.70
2023-01-08T19:14:14.953Z,11.80
2023-01-08T19:16:48.273Z,11.70
2023-01-08T19:19:16.427Z,11.70
2023-01-08T19:21:44.289Z,11.80
2023-01-08T19:24:12.176Z,11.80
2023-01-08T19:26:40.039Z,11.70
2023-01-08T19:29:07.914Z,11.80
2023-01-08T19:31:37.191Z,11.80
2023-01-08T19:34:05.342Z,11.90
2023-01-08T19:36:33.931Z,11.90
2023-01-08T19:39:01.798Z,11.90
2023-01-08T19:41:47.088Z,11.80
2023-01-08T19:44:14.903Z,11.80
2023-01-08T19:46:44.029Z,11.80
2023-01-08T19:49:11.996Z,11.60
2023-01-08T19:51:39.791Z,11.70
2023-01-08T19:54:07.825Z,11.70
2023-01-08T19:56:35.705Z,11.70
2023-01-08T19:59:03.513Z,11.70
2023-01-08T20:01:33.540Z,11.70
2023-01-08T20:04:04.116Z,11.50
2023-01-08T20:06:31.943Z,11.50
2023-01-08T20:09:01.121Z,11.60
2023-01-08T20:11:29.806Z,11.50
2023-01-08T20:14:00.722Z,11.40
2023-01-08T20:16:29.500Z,11.60
2023-01-08T20:18:58.203Z,11.80
2023-01-08T20:21:27.422Z,11.60
2023-01-08T20:23:59.045Z,11.70
2023-01-08T20:26:28.531Z,11.60
2023-01-08T20:28:57.743Z,11.60
2023-01-08T20:31:29.459Z,11.60
2023-01-08T20:33:58.363Z,11.80
2023-01-08T20:36:29.584Z,11.70
2023-01-08T20:38:59.253Z,11.60
2023-01-08T20:41:27.481Z,11.60
2023-01-08T20:43:56.987Z,11.50
2023-01-08T20:46:28.125Z,11.50
2023-01-08T20:48:56.730Z,11.50
2023-01-08T20:51:24.530Z,11.60
2023-01-08T20:53:53.664Z,11.40
2023-01-08T20:56:21.626Z,11.30
2023-01-08T20:58:50.711Z,11.40
2023-01-08T21:01:20.458Z,11.40
2023-01-08T21:03:49.531Z,11.40
2023-01-08T21:06:20.657Z,11.40
2023-01-08T21:08:51.913Z,11.40
2023-01-08T21:11:22.136Z,11.50
2023-01-08T21:13:50.842Z,11.30
2023-01-08T21:16:22.792Z,11.20
2023-01-08T21:18:51.467Z,11.40
2023-01-08T21:21:21.389Z,11.30
2023-01-08T21:23:49.848Z,11.30
2023-01-08T21:26:19.051Z,11.20
2023-01-08T21:28:49.707Z,11.20
2023-01-08T21:31:19.622Z,11.30
2023-01-08T21:33:48.973Z,11.30
2023-01-08T21:36:19.406Z,11.30
2023-01-08T21:38:47.508Z,11.40
2023-01-08T21:41:37.724Z,11.40
2023-01-08T21:44:29.971Z,11.50
2023-01-08T21:47:00.132Z,11.30
2023-01-08T21:49:28.632Z,11.40
2023-01-08T21:52:13.995Z,11.30
2023-01-08T21:54:41.881Z,11.30
2023-01-08T21:57:10.649Z,11.20
2023-01-08T21:59:39.767Z,11.20
2023-01-08T22:02:07.914Z,11.20
2023-01-08T22:04:35.802Z,11.10
2023-01-08T22:07:03.645Z,11.20
2023-01-08T22:09:31.487Z,11.10
2023-01-08T22:11:59.316Z,11.00
2023-01-08T22:14:27.159Z,11.10
2023-01-08T22:16:56.309Z,11.10
2023-01-08T22:19:24.137Z,11.10
2023-01-08T22:21:51.990Z,11.10
2023-01-08T22:24:20.064Z,11.00
2023-01-08T22:26:48.547Z,10.90
2023-01-08T22:29:16.945Z,10.90
2023-01-08T22:31:44.859Z,10.90
2023-01-08T22:34:17.049Z,10.80
2023-01-08T22:36:45.120Z,10.80
2023-01-08T22:39:13.213Z,10.80
2023-01-08T22:41:42.855Z,10.80
2023-01-08T22:44:12.916Z,10.70
2023-01-08T22:46:41.156Z,10.60
2023-01-08T22:49:10.881Z,10.60
2023-01-08T22:51:40.233Z,10.60
2023-01-08T22:54:08.107Z,10.60
2023-01-08T22:56:35.889Z,10.60
2023-01-08T22:59:03.840Z,10.50
2023-01-08T23:01:31.702Z,10.40
2023-01-08T23:04:01.932Z,10.50
2023-01-08T23:06:31.521Z,10.40
2023-01-08T23:09:01.057Z,10.40
2023-01-08T23:11:28.929Z,10.30
2023-01-08T23:13:57.098Z,10.30
2023-01-08T23:16:25.846Z,10.40
2023-01-08T23:18:54.512Z,10.40
2023-01-08T23:21:24.449Z,10.40
2023-01-08T23:23:52.582Z,10.60
2023-01-08T23:26:23.688Z,10.40
2023-01-08T23:28:53.084Z,10.30
2023-01-08T23:31:23.410Z,10.30
2023-01-08T23:33:53.695Z,10.30
2023-01-08T23:36:22.550Z,10.30
2023-01-08T23:38:52.224Z,10.20
2023-01-08T23:41:23.081Z,10.20
2023-01-08T23:43:50.994Z,10.30
2023-01-08T23:46:19.178Z,10.30
2023-01-08T23:48:46.941Z,10.20
2023-01-08T23:51:14.763Z,10.30
2023-01-08T23:53:42.542Z,10.30
2023-01-08T23:56:10.396Z,10.20
2023-01-08T23:58:39.754Z,10.20
